Terminal Aerodrome Forecast
Issued by NWS St Louis, MO

Home | Current Version | Previous Version | Text Only | Print | Product List | Glossary On
Versions: 1 2 3 4 5 6 7 8 9 10 11 12 13 14 15 16 17 18 19 20 21 22 23 24 25 26 27 28
000
FTUS43 KLSX 252347
TAFSTL
TAF
KSTL 252347Z 2600/2706 22014G22KT 6SM -SHRA VCTS OVC025CB
      TEMPO 2600/2602 3SM SHRA OVC015
     FM260200 17006KT P6SM VCSH BKN030
     FM261100 21006KT P6SM OVC015
     FM261600 24007KT P6SM OVC015
     FM262100 25007KT P6SM BKN035
     FM270300 VRB03KT P6SM SCT110=

USA.gov is the U.S. government's official web portal to all federal, state and local government web resources and services.